Time;durP1;ratioP1;P1;durP2;ratioP2;P2;SDS_P1;SDS_P2;PMS_P1;PMS_P2;Temp;Humidity;BMP_temperature;BMP_pressure;BME280_temperature;BME280_humidity;BME280_pressure;Samples;Min_cycle;Max_cycle;Signal;HPM_P1;HPM_P2
2023/08/05 00:01:06;;;;;;;7.75;2.83;;;14.40;99.90;;;;;;5055480;28;20024;-63
2023/08/05 00:03:32;;;;;;;6.72;2.80;;;14.30;99.90;;;;;;5055444;28;20433;-64
2023/08/05 00:05:57;;;;;;;4.68;3.00;;;14.20;99.90;;;;;;5052373;28;20679;-64
2023/08/05 00:08:24;;;;;;;7.38;4.05;;;14.20;99.90;;;;;;5054589;28;20055;-64
2023/08/05 00:10:50;;;;;;;8.40;4.30;;;14.10;99.90;;;;;;5035026;28;20057;-61
2023/08/05 00:13:16;;;;;;;7.13;3.67;;;14.10;99.90;;;;;;5054174;28;20553;-64
2023/08/05 00:15:41;;;;;;;4.20;2.95;;;14.10;99.90;;;;;;5057054;28;20107;-63
2023/08/05 00:18:07;;;;;;;9.25;2.90;;;14.10;99.90;;;;;;5054905;28;20079;-64
2023/08/05 00:20:33;;;;;;;4.78;3.10;;;14.10;99.90;;;;;;5056510;28;20024;-64
2023/08/05 00:22:58;;;;;;;8.32;3.30;;;14.10;99.90;;;;;;5049224;28;20025;-65
2023/08/05 00:25:24;;;;;;;6.18;2.63;;;14.10;99.90;;;;;;5056794;28;20553;-63
2023/08/05 00:27:50;;;;;;;5.50;2.58;;;14.10;99.90;;;;;;5051882;28;20025;-64
2023/08/05 00:30:15;;;;;;;7.13;3.13;;;14.20;99.90;;;;;;5054508;28;20379;-64
2023/08/05 00:32:41;;;;;;;5.38;3.30;;;14.20;99.90;;;;;;5054760;28;20051;-63
2023/08/05 00:35:07;;;;;;;4.82;2.78;;;14.20;99.90;;;;;;5056874;28;20071;-63
2023/08/05 00:37:33;;;;;;;4.35;3.13;;;14.30;99.90;;;;;;5052474;28;20040;-63
2023/08/05 00:39:59;;;;;;;6.43;2.63;;;14.20;99.90;;;;;;5052715;28;20028;-62
2023/08/05 00:42:28;;;;;;;4.00;2.63;;;14.20;99.90;;;;;;5057596;28;20481;-63
2023/08/05 00:44:54;;;;;;;6.57;2.78;;;14.20;99.90;;;;;;5053758;28;20509;-62
2023/08/05 00:47:20;;;;;;;6.05;2.28;;;14.20;99.90;;;;;;5055551;28;20047;-63
2023/08/05 00:49:49;;;;;;;7.97;3.03;;;14.20;99.90;;;;;;5056946;28;20056;-64
2023/08/05 00:52:16;;;;;;;8.73;3.03;;;14.20;99.90;;;;;;5046904;28;20029;-64
2023/08/05 00:54:42;;;;;;;8.85;3.40;;;14.20;99.90;;;;;;5054650;28;20024;-64
2023/08/05 00:57:11;;;;;;;7.00;2.60;;;14.20;99.90;;;;;;5059390;28;20052;-63
2023/08/05 00:59:37;;;;;;;4.65;2.90;;;14.20;99.90;;;;;;5063247;28;20108;-64
2023/08/05 01:02:03;;;;;;;7.28;2.75;;;14.20;99.90;;;;;;5060276;28;20116;-63
2023/08/05 01:04:29;;;;;;;3.35;2.58;;;14.20;99.90;;;;;;5060841;28;20029;-63
2023/08/05 01:06:56;;;;;;;5.82;3.00;;;14.20;99.90;;;;;;5054220;28;20033;-66
2023/08/05 01:09:22;;;;;;;6.15;3.65;;;14.20;99.90;;;;;;5057469;28;20021;-64
2023/08/05 01:11:48;;;;;;;14.32;3.65;;;14.20;99.90;;;;;;5034737;28;20063;-64
2023/08/05 01:14:13;;;;;;;8.93;3.20;;;14.10;99.90;;;;;;5051251;28;20051;-63
2023/08/05 01:16:39;;;;;;;6.35;3.13;;;14.00;99.90;;;;;;5054897;28;20401;-64
2023/08/05 01:19:10;;;;;;;4.53;3.22;;;13.90;99.90;;;;;;5056674;28;20066;-63
2023/08/05 01:21:48;;;;;;;5.50;3.40;;;13.80;99.90;;;;;;5056797;28;20497;-64
2023/08/05 01:24:34;;;;;;;5.53;3.75;;;13.70;99.90;;;;;;5049699;28;20029;-61
2023/08/05 01:27:00;;;;;;;14.48;3.78;;;13.60;99.90;;;;;;5058013;28;20037;-64
2023/08/05 01:29:26;;;;;;;11.68;3.90;;;13.60;99.90;;;;;;5060363;28;20063;-64
2023/08/05 01:31:53;;;;;;;7.38;3.42;;;13.50;99.90;;;;;;5061244;28;20057;-65
2023/08/05 01:34:18;;;;;;;7.85;3.70;;;13.50;99.90;;;;;;5061172;28;20052;-63
2023/08/05 01:36:44;;;;;;;6.93;3.95;;;13.50;99.90;;;;;;5050685;28;20029;-63
2023/08/05 01:39:09;;;;;;;7.55;4.10;;;13.50;99.90;;;;;;5054654;28;20432;-63
2023/08/05 01:41:35;;;;;;;13.55;4.10;;;13.40;99.90;;;;;;5048838;28;20051;-62
2023/08/05 01:44:01;;;;;;;5.15;3.75;;;13.30;99.90;;;;;;5051496;28;20028;-62
2023/08/05 01:46:26;;;;;;;11.52;4.32;;;13.30;99.90;;;;;;5054120;28;20037;-63
2023/08/05 01:48:52;;;;;;;4.30;3.20;;;13.30;99.90;;;;;;5050261;28;20029;-65
2023/08/05 01:51:17;;;;;;;7.85;3.53;;;13.20;99.90;;;;;;5053246;28;20078;-62
2023/08/05 01:53:43;;;;;;;5.90;3.97;;;13.10;99.90;;;;;;5056473;28;20024;-63
2023/08/05 01:56:09;;;;;;;21.20;5.28;;;13.00;99.90;;;;;;5050882;28;20025;-63
2023/08/05 01:58:34;;;;;;;5.68;4.13;;;13.00;99.90;;;;;;5064885;28;20027;-61
2023/08/05 02:01:00;;;;;;;5.22;4.15;;;12.90;99.90;;;;;;5059254;28;20036;-65
2023/08/05 02:03:25;;;;;;;9.65;3.42;;;12.90;99.90;;;;;;5049874;28;20474;-63
2023/08/05 02:05:51;;;;;;;8.52;5.32;;;12.80;99.90;;;;;;5060170;28;20028;-63
2023/08/05 02:08:16;;;;;;;7.45;4.72;;;12.80;99.90;;;;;;5063477;28;20017;-64
2023/08/05 02:10:42;;;;;;;11.65;5.25;;;12.80;99.90;;;;;;5039248;28;20739;-63
2023/08/05 02:13:08;;;;;;;16.02;5.32;;;12.80;99.90;;;;;;5055134;28;20025;-63
2023/08/05 02:15:33;;;;;;;7.95;5.90;;;12.80;99.90;;;;;;5056789;28;20032;-63
2023/08/05 02:17:59;;;;;;;12.43;5.95;;;12.80;99.90;;;;;;5057887;28;20486;-64
2023/08/05 02:20:25;;;;;;;12.50;6.93;;;12.90;99.90;;;;;;5058352;28;20103;-63
2023/08/05 02:22:50;;;;;;;15.77;7.28;;;12.90;99.90;;;;;;5054811;28;20082;-63
2023/08/05 02:25:16;;;;;;;12.32;7.13;;;13.00;99.90;;;;;;5049242;28;20032;-63
2023/08/05 02:27:41;;;;;;;10.63;6.07;;;13.00;99.90;;;;;;5049494;28;20033;-65
2023/08/05 02:30:08;;;;;;;16.35;6.53;;;13.10;99.90;;;;;;5062342;28;20029;-64
2023/08/05 02:32:34;;;;;;;9.20;5.97;;;13.20;99.90;;;;;;5058115;28;20822;-62
2023/08/05 02:34:59;;;;;;;9.57;5.90;;;13.30;99.90;;;;;;5052210;28;20055;-62
2023/08/05 02:37:25;;;;;;;11.32;6.03;;;13.40;99.90;;;;;;5062504;28;20070;-64
2023/08/05 02:39:50;;;;;;;14.45;5.57;;;13.40;99.90;;;;;;5057002;28;20020;-63
2023/08/05 02:42:16;;;;;;;9.23;4.85;;;13.50;99.90;;;;;;5049707;28;20222;-63
2023/08/05 02:44:42;;;;;;;9.80;4.78;;;13.50;99.90;;;;;;5062439;28;20037;-63
2023/08/05 02:47:07;;;;;;;8.55;4.65;;;13.50;99.90;;;;;;5059973;28;20040;-63
2023/08/05 02:49:33;;;;;;;6.63;4.40;;;13.60;99.90;;;;;;5049501;28;20547;-62
2023/08/05 02:51:59;;;;;;;10.82;4.43;;;13.60;99.90;;;;;;5053570;28;20032;-63
2023/08/05 02:54:25;;;;;;;12.68;4.50;;;13.60;99.90;;;;;;5056672;28;20032;-64
2023/08/05 02:56:51;;;;;;;6.78;4.22;;;13.70;99.90;;;;;;5049514;28;20025;-65
2023/08/05 02:59:16;;;;;;;8.95;4.22;;;13.70;99.90;;;;;;5055079;28;20029;-63
2023/08/05 03:01:42;;;;;;;11.35;4.10;;;13.70;99.90;;;;;;5051781;28;20363;-63
2023/08/05 03:04:08;;;;;;;9.00;4.03;;;13.70;99.90;;;;;;5054338;28;20033;-63
2023/08/05 03:06:34;;;;;;;10.98;3.75;;;13.70;99.90;;;;;;5064447;28;20037;-63
2023/08/05 03:09:00;;;;;;;9.80;3.85;;;13.70;99.90;;;;;;5061476;28;20039;-64
2023/08/05 03:11:30;;;;;;;12.57;6.70;;;13.70;99.90;;;;;;5039538;28;20045;-63
2023/08/05 03:13:55;;;;;;;26.38;7.97;;;13.60;99.90;;;;;;5058556;28;20059;-64
2023/08/05 03:16:21;;;;;;;17.63;7.03;;;13.60;99.90;;;;;;5067369;28;20052;-63
2023/08/05 03:18:47;;;;;;;21.38;7.38;;;13.70;99.90;;;;;;5056081;28;20025;-62
2023/08/05 03:21:12;;;;;;;29.83;8.90;;;13.60;99.90;;;;;;5058599;28;20029;-64
2023/08/05 03:23:38;;;;;;;25.55;9.30;;;13.70;99.90;;;;;;5063654;28;20017;-64
2023/08/05 03:26:03;;;;;;;26.33;7.82;;;13.70;99.90;;;;;;5064793;28;20106;-63
2023/08/05 03:28:29;;;;;;;58.05;9.45;;;13.70;99.90;;;;;;5068845;28;20097;-62
2023/08/05 03:30:54;;;;;;;30.20;9.43;;;13.70;99.90;;;;;;5065859;28;20031;-65
2023/08/05 03:33:20;;;;;;;26.92;10.05;;;13.80;99.90;;;;;;5064206;28;20388;-63
2023/08/05 03:35:46;;;;;;;31.33;9.00;;;13.70;99.90;;;;;;5057579;28;20028;-62
2023/08/05 03:38:11;;;;;;;21.35;8.23;;;13.80;99.90;;;;;;5055495;28;20761;-63
2023/08/05 03:40:37;;;;;;;21.70;8.48;;;13.80;99.90;;;;;;5055757;28;20358;-57
2023/08/05 03:43:03;;;;;;;16.38;7.25;;;13.90;99.90;;;;;;5059612;28;20025;-64
2023/08/05 03:45:28;;;;;;;30.60;8.70;;;13.90;99.90;;;;;;5062164;28;20025;-64
2023/08/05 03:47:57;;;;;;;40.42;9.32;;;13.80;99.90;;;;;;5061080;28;20031;-64
2023/08/05 03:50:23;;;;;;;30.92;6.78;;;13.80;99.90;;;;;;5056176;28;20059;-65
2023/08/05 03:52:49;;;;;;;27.48;6.38;;;13.80;99.90;;;;;;5056573;28;20057;-65
2023/08/05 03:55:15;;;;;;;37.08;8.48;;;13.80;99.90;;;;;;5055781;28;19928;-62
2023/08/05 03:57:41;;;;;;;36.75;7.35;;;13.70;99.90;;;;;;5054111;28;20029;-64
2023/08/05 04:00:11;;;;;;;31.15;8.02;;;13.70;99.90;;;;;;5056147;28;20031;-63
2023/08/05 04:02:37;;;;;;;31.08;9.75;;;13.70;99.90;;;;;;5052043;28;20021;-63
2023/08/05 04:05:06;;;;;;;28.02;7.97;;;13.80;99.90;;;;;;5056230;28;20033;-64
2023/08/05 04:07:31;;;;;;;41.47;8.27;;;13.80;99.90;;;;;;5059009;28;20031;-64
2023/08/05 04:09:57;;;;;;;50.30;9.77;;;13.80;99.90;;;;;;5055785;28;20966;-65
2023/08/05 04:12:23;;;;;;;67.10;9.98;;;13.70;99.90;;;;;;5034384;28;20749;-64
2023/08/05 04:14:50;;;;;;;36.03;9.35;;;13.80;99.90;;;;;;5053955;28;20100;-66
2023/08/05 04:17:16;;;;;;;49.42;10.40;;;13.80;99.90;;;;;;5054268;28;20028;-65
2023/08/05 04:19:42;;;;;;;49.15;10.25;;;13.80;99.90;;;;;;5059894;28;20036;-64
2023/08/05 04:22:08;;;;;;;38.53;10.93;;;13.80;99.90;;;;;;5056431;28;20029;-64
2023/08/05 04:24:35;;;;;;;47.05;11.07;;;13.90;99.90;;;;;;5054998;28;20397;-64
2023/08/05 04:27:01;;;;;;;36.35;10.32;;;13.90;99.90;;;;;;5062155;28;20032;-63
2023/08/05 04:29:27;;;;;;;34.00;10.27;;;14.00;99.90;;;;;;5049770;28;20578;-64
2023/08/05 04:31:53;;;;;;;34.83;11.05;;;14.00;99.90;;;;;;5055727;28;20115;-64
2023/08/05 04:34:19;;;;;;;28.70;10.68;;;14.00;99.90;;;;;;5059316;28;20163;-65
2023/08/05 04:36:49;;;;;;;30.75;11.32;;;14.00;99.90;;;;;;5057821;28;20028;-64
2023/08/05 04:39:17;;;;;;;25.50;10.80;;;14.00;99.90;;;;;;5054239;28;20021;-64
2023/08/05 04:41:43;;;;;;;30.63;10.38;;;14.10;99.90;;;;;;5054847;28;20498;-65
2023/08/05 04:44:09;;;;;;;21.00;10.13;;;14.10;99.90;;;;;;5057938;28;20036;-66
2023/08/05 04:46:35;;;;;;;29.90;10.82;;;14.10;99.90;;;;;;5051274;28;20545;-63
2023/08/05 04:49:00;;;;;;;28.95;10.40;;;14.20;99.90;;;;;;5061926;28;20036;-64
2023/08/05 04:51:26;;;;;;;67.03;8.90;;;14.20;99.90;;;;;;5068297;28;20020;-64
2023/08/05 04:53:52;;;;;;;18.35;8.73;;;14.20;99.90;;;;;;5056796;28;20064;-64
2023/08/05 04:56:24;;;;;;;69.47;9.38;;;14.10;99.90;;;;;;5061912;28;20233;-67
2023/08/05 04:58:50;;;;;;;58.22;9.70;;;14.10;99.90;;;;;;5055690;28;20498;-65
2023/08/05 05:01:16;;;;;;;29.45;10.45;;;14.10;99.90;;;;;;5056005;28;20029;-66
2023/08/05 05:03:42;;;;;;;25.25;8.82;;;14.20;99.90;;;;;;5054565;28;20032;-64
2023/08/05 05:06:07;;;;;;;35.97;10.32;;;14.20;99.90;;;;;;5066422;28;20025;-64
2023/08/05 05:08:33;;;;;;;39.47;9.50;;;14.30;99.90;;;;;;5064933;28;20111;-64
2023/08/05 05:10:58;;;;;;;42.65;11.15;;;14.30;99.90;;;;;;5051969;28;20033;-62
2023/08/05 05:13:24;;;;;;;64.55;11.00;;;14.20;99.90;;;;;;5036825;28;20045;-65
2023/08/05 05:15:52;;;;;;;75.78;10.05;;;14.30;99.90;;;;;;5067080;28;20086;-64
2023/08/05 05:18:19;;;;;;;25.98;10.30;;;14.30;99.90;;;;;;5061264;28;20021;-64
2023/08/05 05:20:49;;;;;;;30.23;11.00;;;14.30;99.90;;;;;;5066810;28;20013;-63
2023/08/05 05:23:14;;;;;;;26.95;12.20;;;14.40;99.90;;;;;;5053498;28;20486;-64
2023/08/05 05:25:40;;;;;;;25.88;12.18;;;14.50;99.90;;;;;;5054610;28;20039;-64
2023/08/05 05:28:05;;;;;;;24.92;11.90;;;14.60;99.90;;;;;;5060511;28;20386;-64
2023/08/05 05:30:31;;;;;;;24.23;13.10;;;14.70;99.90;;;;;;5066141;28;20028;-64
2023/08/05 05:32:57;;;;;;;36.30;13.10;;;14.80;99.90;;;;;;5055890;28;20028;-64
2023/08/05 05:35:23;;;;;;;23.17;13.05;;;14.80;99.90;;;;;;5058516;28;20013;-64
2023/08/05 05:37:48;;;;;;;26.33;13.15;;;14.90;99.90;;;;;;5068585;28;20501;-63
2023/08/05 05:40:14;;;;;;;24.10;12.85;;;15.00;99.90;;;;;;5065436;28;20048;-64
2023/08/05 05:42:40;;;;;;;28.15;14.57;;;15.00;99.90;;;;;;5050394;28;20386;-64
2023/08/05 05:45:06;;;;;;;23.70;13.63;;;15.10;99.90;;;;;;5052924;28;20110;-64
2023/08/05 05:47:32;;;;;;;23.67;13.43;;;15.20;99.90;;;;;;5058021;28;20029;-64
2023/08/05 05:49:57;;;;;;;29.08;13.48;;;15.20;99.90;;;;;;5053411;28;20033;-63
2023/08/05 05:52:23;;;;;;;22.23;12.65;;;15.20;99.90;;;;;;5060567;28;20036;-61
2023/08/05 05:54:48;;;;;;;21.92;12.18;;;15.30;99.90;;;;;;5055931;28;20144;-64
2023/08/05 05:57:14;;;;;;;19.38;12.40;;;15.30;99.90;;;;;;5057806;28;20021;-64
2023/08/05 05:59:39;;;;;;;22.30;13.43;;;15.30;99.90;;;;;;5064884;28;20047;-64
2023/08/05 06:02:07;;;;;;;24.17;12.30;;;15.30;99.90;;;;;;5053516;28;20151;-63
2023/08/05 06:04:33;;;;;;;23.90;12.38;;;15.20;99.90;;;;;;5051857;28;20082;-64
2023/08/05 06:07:01;;;;;;;21.38;10.88;;;15.30;99.90;;;;;;5058642;28;20029;-65
2023/08/05 06:09:27;;;;;;;24.95;11.43;;;15.40;99.90;;;;;;5053251;28;20685;-64
2023/08/05 06:11:53;;;;;;;19.63;10.95;;;15.50;99.90;;;;;;5034735;28;20032;-64
2023/08/05 06:14:20;;;;;;;12.45;8.88;;;15.60;99.90;;;;;;5050783;28;20114;-65
2023/08/05 06:16:46;;;;;;;12.20;7.75;;;15.70;99.90;;;;;;5051536;28;20028;-63
2023/08/05 06:19:12;;;;;;;11.30;7.15;;;15.60;99.90;;;;;;5056821;28;20630;-64
2023/08/05 06:21:37;;;;;;;16.27;8.18;;;15.60;99.90;;;;;;5060533;28;20047;-65
2023/08/05 06:24:03;;;;;;;11.75;7.20;;;15.60;99.90;;;;;;5050616;28;20025;-65
2023/08/05 06:26:29;;;;;;;12.80;8.38;;;15.70;99.90;;;;;;5054961;28;20067;-65
2023/08/05 06:28:55;;;;;;;13.32;7.65;;;15.90;99.90;;;;;;5050331;28;20037;-64
2023/08/05 06:31:20;;;;;;;15.88;8.40;;;16.00;99.90;;;;;;5057664;28;20031;-64
2023/08/05 06:33:46;;;;;;;17.95;8.63;;;16.10;99.90;;;;;;5054055;28;20114;-63
2023/08/05 06:36:11;;;;;;;12.52;8.68;;;16.20;99.90;;;;;;5053544;28;20044;-65
2023/08/05 06:38:37;;;;;;;14.57;8.52;;;16.40;99.90;;;;;;5066205;28;20036;-65
2023/08/05 06:41:03;;;;;;;28.20;13.77;;;16.50;99.90;;;;;;5057072;28;20043;-64
2023/08/05 06:43:29;;;;;;;26.15;14.63;;;16.60;99.90;;;;;;5063874;28;20036;-65
2023/08/05 06:45:54;;;;;;;32.42;16.65;;;16.70;99.90;;;;;;5060148;28;20490;-64
2023/08/05 06:48:20;;;;;;;31.75;15.90;;;16.90;99.90;;;;;;5066612;28;20020;-65
2023/08/05 06:50:46;;;;;;;31.10;16.92;;;17.00;99.90;;;;;;5071953;28;20054;-66
2023/08/05 06:53:11;;;;;;;26.92;14.68;;;17.20;99.90;;;;;;5063543;28;20090;-64
2023/08/05 06:55:37;;;;;;;25.08;13.57;;;17.40;99.90;;;;;;5064451;28;20024;-65
2023/08/05 06:58:03;;;;;;;28.55;15.55;;;18.00;99.90;;;;;;5063763;28;20024;-64
2023/08/05 07:00:28;;;;;;;25.63;15.27;;;18.90;99.90;;;;;;5067202;28;20523;-64
2023/08/05 07:02:54;;;;;;;23.58;13.68;;;19.90;99.90;;;;;;5066245;28;20048;-63
2023/08/05 07:05:20;;;;;;;22.73;14.27;;;21.70;99.90;;;;;;5059197;28;20057;-67
2023/08/05 07:07:46;;;;;;;23.27;12.25;;;22.30;99.90;;;;;;5062742;28;20055;-64
2023/08/05 07:10:12;;;;;;;21.83;11.88;;;22.50;99.90;;;;;;5060735;28;20430;-64
2023/08/05 07:12:38;;;;;;;18.90;10.93;;;22.90;99.90;;;;;;5045140;28;20116;-63
2023/08/05 07:15:04;;;;;;;16.65;11.63;;;22.60;99.90;;;;;;5063287;28;20103;-64
2023/08/05 07:17:30;;;;;;;20.85;11.77;;;21.80;99.90;;;;;;5064248;28;20020;-64
2023/08/05 07:19:56;;;;;;;20.15;10.98;;;21.10;99.90;;;;;;5060656;28;20027;-63
2023/08/05 07:22:22;;;;;;;16.13;11.27;;;20.80;99.90;;;;;;5054957;28;20533;-64
2023/08/05 07:24:47;;;;;;;21.45;10.93;;;20.20;99.90;;;;;;5050354;28;20075;-64
2023/08/05 07:27:13;;;;;;;22.77;12.20;;;20.00;99.90;;;;;;5067702;23;20053;-65
2023/08/05 07:29:43;;;;;;;20.33;12.43;;;19.80;99.90;;;;;;5042191;28;20445;-66
2023/08/05 07:32:08;;;;;;;23.42;11.95;;;20.10;99.90;;;;;;5029664;28;20104;-64
2023/08/05 07:34:34;;;;;;;16.27;10.98;;;20.40;99.90;;;;;;5031001;28;20569;-64
2023/08/05 07:37:00;;;;;;;18.65;11.20;;;21.00;99.90;;;;;;5031914;28;20075;-65
2023/08/05 07:39:33;;;;;;;20.35;9.80;;;20.60;99.90;;;;;;5027280;28;20018;-65
2023/08/05 07:42:03;;;;;;;18.63;10.48;;;20.70;99.90;;;;;;5027672;28;20059;-65
2023/08/05 07:44:31;;;;;;;18.45;10.30;;;20.50;99.90;;;;;;5031362;28;20036;-65
2023/08/05 07:46:58;;;;;;;17.52;10.20;;;20.80;99.90;;;;;;5027621;28;20116;-65
2023/08/05 07:49:24;;;;;;;13.68;8.57;;;21.50;99.90;;;;;;5025770;28;20645;-65
2023/08/05 07:51:51;;;;;;;16.73;10.00;;;22.60;99.90;;;;;;5029439;28;20032;-65
2023/08/05 07:54:17;;;;;;;14.70;7.80;;;23.60;99.90;;;;;;5025426;28;20056;-65
2023/08/05 07:56:43;;;;;;;10.70;5.90;;;24.20;99.90;;;;;;5026705;28;20061;-66
2023/08/05 07:59:10;;;;;;;14.40;8.32;;;25.90;99.90;;;;;;5027539;28;20494;-65
2023/08/05 08:01:38;;;;;;;11.20;7.50;;;26.60;95.10;;;;;;5026013;28;20388;-65
2023/08/05 08:04:07;;;;;;;13.27;7.22;;;27.40;95.10;;;;;;5025278;28;20033;-66
2023/08/05 08:06:32;;;;;;;9.38;7.00;;;28.30;92.80;;;;;;5030515;28;20029;-66
2023/08/05 08:08:58;;;;;;;15.48;7.00;;;29.80;85.50;;;;;;5026005;28;20030;-66
2023/08/05 08:11:24;;;;;;;14.35;7.22;;;30.20;87.60;;;;;;5042948;28;20013;-66
2023/08/05 08:13:49;;;;;;;12.35;7.97;;;30.00;85.20;;;;;;5029482;28;20038;-67
2023/08/05 08:16:15;;;;;;;15.38;8.77;;;28.80;82.20;;;;;;5029824;28;20128;-66
2023/08/05 08:18:41;;;;;;;16.13;9.48;;;28.10;85.20;;;;;;5027351;28;20475;-64
2023/08/05 08:21:07;;;;;;;13.50;9.63;;;27.70;85.30;;;;;;5027453;28;20032;-66
2023/08/05 08:23:33;;;;;;;14.00;9.63;;;26.30;91.00;;;;;;5025225;28;20473;-65
2023/08/05 08:25:59;;;;;;;15.65;9.45;;;25.30;92.20;;;;;;5026164;28;20443;-65
2023/08/05 08:28:26;;;;;;;15.75;9.90;;;23.80;94.90;;;;;;5027674;28;20052;-66
2023/08/05 08:30:58;;;;;;;17.67;10.25;;;23.20;97.20;;;;;;5030303;28;20033;-65
2023/08/05 08:33:25;;;;;;;14.50;9.88;;;23.00;98.70;;;;;;5025842;28;20029;-65
2023/08/05 08:35:51;;;;;;;14.50;9.32;;;22.70;99.70;;;;;;5026450;28;20108;-65
2023/08/05 08:38:17;;;;;;;17.75;10.60;;;22.70;99.90;;;;;;5023916;28;20116;-66
2023/08/05 08:40:47;;;;;;;17.63;9.25;;;23.80;99.50;;;;;;5028059;28;20493;-66
2023/08/05 08:43:17;;;;;;;14.88;10.52;;;24.30;97.70;;;;;;5029627;28;20029;-65
2023/08/05 08:45:45;;;;;;;13.80;8.82;;;24.50;96.90;;;;;;5027236;28;20388;-67
2023/08/05 08:48:12;;;;;;;13.90;9.25;;;24.10;95.90;;;;;;5023546;28;20026;-65
2023/08/05 08:50:39;;;;;;;15.88;9.27;;;23.60;97.40;;;;;;5028420;28;20513;-67
2023/08/05 08:53:08;;;;;;;16.67;9.73;;;22.70;98.40;;;;;;5028951;28;20096;-66
2023/08/05 08:55:35;;;;;;;14.98;9.55;;;22.50;99.50;;;;;;5027168;28;20195;-65
2023/08/05 08:58:01;;;;;;;13.23;8.60;;;22.20;99.90;;;;;;5025424;28;20032;-65
2023/08/05 09:00:26;;;;;;;17.55;9.77;;;22.10;99.90;;;;;;5028537;28;20104;-65
2023/08/05 09:02:53;;;;;;;14.23;8.48;;;22.80;99.90;;;;;;5030802;28;20422;-65
2023/08/05 09:05:19;;;;;;;10.98;6.82;;;24.10;99.60;;;;;;5026224;28;20037;-65
2023/08/05 09:07:46;;;;;;;12.13;6.45;;;25.70;97.10;;;;;;5028165;28;20033;-65
2023/08/05 09:10:13;;;;;;;12.88;7.90;;;26.30;93.70;;;;;;5025726;28;20056;-65
2023/08/05 09:12:39;;;;;;;11.45;6.85;;;25.70;92.30;;;;;;5028127;28;20029;-64
2023/08/05 09:15:05;;;;;;;11.75;6.68;;;25.70;92.20;;;;;;5028005;28;20040;-65
2023/08/05 09:17:40;;;;;;;13.93;7.80;;;26.00;91.40;;;;;;5026974;28;20452;-66
2023/08/05 09:20:15;;;;;;;8.40;6.22;;;26.10;92.00;;;;;;5042423;28;20033;-66
2023/08/05 09:22:51;;;;;;;8.73;6.70;;;25.70;92.70;;;;;;5030331;28;20392;-65
2023/08/05 09:25:17;;;;;;;8.85;6.15;;;25.60;92.40;;;;;;5025965;28;20032;-66
2023/08/05 09:27:52;;;;;;;9.25;6.13;;;26.20;92.80;;;;;;5024526;28;20049;-65
2023/08/05 09:30:18;;;;;;;8.80;5.50;;;26.30;91.60;;;;;;5029259;28;20109;-65
2023/08/05 09:32:45;;;;;;;10.93;6.05;;;26.40;93.50;;;;;;5025658;28;20116;-63
2023/08/05 09:35:11;;;;;;;11.75;6.20;;;26.50;93.20;;;;;;5028552;28;20120;-65
2023/08/05 09:37:47;;;;;;;9.25;6.25;;;26.50;91.30;;;;;;5027867;28;20113;-66
2023/08/05 09:40:28;;;;;;;10.90;6.63;;;25.80;91.00;;;;;;5042469;28;20029;-65
2023/08/05 09:42:59;;;;;;;11.52;6.45;;;25.00;92.10;;;;;;5026187;28;20026;-65
2023/08/05 09:45:28;;;;;;;11.32;6.50;;;24.20;93.50;;;;;;5003648;28;20030;-67
2023/08/05 09:48:10;;;;;;;10.65;6.28;;;24.00;94.70;;;;;;5007245;28;20030;-67
2023/08/05 09:50:37;;;;;;;9.02;6.32;;;23.80;95.70;;;;;;5009375;28;20052;-67
2023/08/05 09:53:13;;;;;;;10.35;6.38;;;24.20;95.00;;;;;;5011229;28;20088;-67
2023/08/05 09:55:39;;;;;;;10.63;6.45;;;24.60;95.90;;;;;;5007371;28;20029;-67
2023/08/05 09:58:07;;;;;;;8.10;5.28;;;25.20;93.00;;;;;;5009772;28;20097;-67
2023/08/05 10:00:42;;;;;;;9.93;6.10;;;25.80;92.50;;;;;;5011613;28;20025;-67
2023/08/05 10:03:13;;;;;;;9.55;4.70;;;26.50;93.10;;;;;;5006970;28;20228;-65
2023/08/05 10:05:41;;;;;;;6.38;4.45;;;27.20;91.60;;;;;;5010157;28;20034;-67
2023/08/05 10:08:08;;;;;;;6.05;4.28;;;27.60;85.90;;;;;;5016534;28;20826;-67
2023/08/05 10:10:37;;;;;;;6.47;4.18;;;27.40;87.80;;;;;;5007728;28;20492;-67
2023/08/05 10:13:09;;;;;;;6.72;4.05;;;26.70;91.20;;;;;;5016093;28;20049;-67
2023/08/05 10:15:41;;;;;;;7.10;4.00;;;26.60;91.80;;;;;;5024544;28;20553;-66
2023/08/05 10:18:11;;;;;;;6.28;4.93;;;26.40;89.80;;;;;;5016086;28;20554;-66
2023/08/05 10:20:38;;;;;;;8.80;5.35;;;26.30;89.50;;;;;;5013557;28;20609;-67
2023/08/05 10:23:08;;;;;;;7.38;5.00;;;25.90;91.10;;;;;;5016024;28;20045;-67
2023/08/05 10:26:01;;;;;;;7.68;5.15;;;25.40;92.20;;;;;;5009896;28;20045;-67
2023/08/05 10:28:26;;;;;;;6.75;4.22;;;25.20;94.10;;;;;;5013107;28;20104;-66
2023/08/05 10:30:54;;;;;;;6.78;4.45;;;25.20;93.10;;;;;;5012934;28;20021;-67
2023/08/05 10:33:20;;;;;;;7.40;4.22;;;24.90;93.50;;;;;;5016330;28;20417;-66
2023/08/05 10:35:46;;;;;;;6.97;4.03;;;24.70;92.90;;;;;;5011244;28;20073;-66
2023/08/05 10:38:16;;;;;;;7.20;3.97;;;24.20;94.20;;;;;;5010696;28;20030;-66
2023/08/05 10:41:02;;;;;;;7.78;4.18;;;23.80;95.80;;;;;;5009200;28;20022;-66
2023/08/05 10:43:31;;;;;;;7.68;4.15;;;23.50;97.30;;;;;;5017426;28;20316;-67
2023/08/05 10:45:57;;;;;;;8.40;4.38;;;23.20;96.90;;;;;;5012938;28;20126;-67
2023/08/05 10:48:42;;;;;;;4.50;3.38;;;23.00;97.40;;;;;;5005105;28;20033;-66
2023/08/05 10:51:10;;;;;;;6.22;3.85;;;23.00;98.30;;;;;;5012267;28;20034;-66
2023/08/05 10:53:36;;;;;;;6.88;4.15;;;23.00;98.20;;;;;;5009721;28;20515;-67
2023/08/05 10:56:02;;;;;;;9.32;5.35;;;22.80;99.40;;;;;;5006413;28;20045;-66
2023/08/05 10:58:29;;;;;;;8.20;4.95;;;22.50;98.50;;;;;;5011644;28;20651;-66
2023/08/05 11:00:59;;;;;;;8.85;5.18;;;22.20;99.50;;;;;;5009839;28;20021;-66
2023/08/05 11:03:29;;;;;;;8.88;5.15;;;22.00;99.90;;;;;;5007279;28;21820;-66
2023/08/05 11:05:58;;;;;;;10.15;6.07;;;22.00;99.90;;;;;;5010748;28;20022;-66
2023/08/05 11:08:26;;;;;;;11.93;5.40;;;22.30;99.90;;;;;;5010580;28;20482;-66
2023/08/05 11:10:51;;;;;;;13.40;5.70;;;22.30;99.90;;;;;;5011440;28;20039;-66
2023/08/05 11:13:18;;;;;;;11.63;5.68;;;22.30;99.90;;;;;;5012445;28;20026;-67
2023/08/05 11:16:03;;;;;;;8.05;4.88;;;22.50;99.30;;;;;;5011356;28;20026;-67
2023/08/05 11:18:29;;;;;;;9.52;5.15;;;22.50;99.90;;;;;;5007900;28;20044;-67
2023/08/05 11:20:56;;;;;;;10.80;5.18;;;22.60;99.90;;;;;;5010398;28;20109;-66
2023/08/05 11:23:23;;;;;;;6.50;4.13;;;22.80;99.40;;;;;;5006281;28;20507;-67
2023/08/05 11:25:48;;;;;;;6.38;4.32;;;22.90;99.30;;;;;;5009697;28;20034;-67
2023/08/05 11:28:14;;;;;;;6.00;4.63;;;22.80;99.40;;;;;;5010676;28;20088;-66
2023/08/05 11:30:40;;;;;;;5.22;3.88;;;22.80;98.60;;;;;;5010147;28;20045;-65
2023/08/05 11:33:06;;;;;;;6.38;4.20;;;22.80;99.60;;;;;;5010618;28;20508;-67
2023/08/05 11:35:32;;;;;;;8.45;4.57;;;22.40;99.50;;;;;;5009898;28;22414;-67
2023/08/05 11:37:58;;;;;;;7.90;4.43;;;22.40;99.90;;;;;;5011306;28;20438;-67
2023/08/05 11:40:25;;;;;;;7.43;4.93;;;22.60;99.90;;;;;;5009880;28;20034;-68
2023/08/05 11:42:52;;;;;;;6.00;3.90;;;22.50;99.60;;;;;;5012403;28;20054;-66
2023/08/05 11:45:18;;;;;;;5.82;4.30;;;22.30;99.90;;;;;;5009503;28;20036;-67
2023/08/05 11:47:44;;;;;;;4.65;3.53;;;22.30;99.90;;;;;;5008662;28;20034;-68
2023/08/05 11:50:11;;;;;;;6.32;3.63;;;22.40;99.90;;;;;;5011733;28;20021;-67
2023/08/05 11:52:38;;;;;;;5.85;2.88;;;22.30;99.90;;;;;;5010975;28;20428;-67
2023/08/05 11:55:05;;;;;;;3.83;2.40;;;22.10;99.90;;;;;;5008750;28;20034;-67
2023/08/05 11:57:32;;;;;;;4.28;2.75;;;22.00;99.90;;;;;;5010683;28;20065;-67
2023/08/05 12:00:04;;;;;;;2.50;1.92;;;21.70;99.90;;;;;;5009032;28;20021;-66
2023/08/05 12:02:33;;;;;;;3.38;2.25;;;21.60;99.90;;;;;;5011085;28;20173;-67
2023/08/05 12:04:59;;;;;;;3.30;1.92;;;21.50;99.90;;;;;;5010823;28;20022;-66
2023/08/05 12:07:24;;;;;;;2.40;2.00;;;21.30;99.90;;;;;;5006687;28;20021;-67
2023/08/05 12:10:07;;;;;;;2.75;1.98;;;21.20;99.90;;;;;;5009022;28;20105;-67
2023/08/05 12:12:33;;;;;;;3.10;1.90;;;21.20;99.90;;;;;;5009819;28;20026;-67
2023/08/05 12:15:12;;;;;;;2.22;1.70;;;21.30;99.90;;;;;;4990842;28;20427;-66
2023/08/05 12:17:39;;;;;;;2.58;1.70;;;21.20;99.90;;;;;;5011149;28;20029;-67
2023/08/05 12:20:11;;;;;;;6.38;2.60;;;21.20;99.90;;;;;;5010266;28;20102;-67
2023/08/05 12:22:37;;;;;;;2.67;2.08;;;21.10;99.90;;;;;;5010467;28;20487;-67
2023/08/05 12:25:04;;;;;;;2.50;1.98;;;21.00;99.90;;;;;;5006055;28;20111;-67
2023/08/05 12:27:29;;;;;;;2.58;1.85;;;20.90;99.90;;;;;;5011902;28;20045;-66
2023/08/05 12:29:55;;;;;;;3.60;1.90;;;21.00;99.90;;;;;;5009396;28;20487;-67
2023/08/05 12:32:20;;;;;;;6.53;2.83;;;20.80;99.90;;;;;;5011019;28;20030;-67
2023/08/05 12:34:46;;;;;;;3.55;1.92;;;20.60;99.90;;;;;;5010100;28;20026;-67
2023/08/05 12:37:11;;;;;;;6.78;2.95;;;20.40;99.90;;;;;;5010328;28;20084;-67